Time;durP1;ratioP1;P1;durP2;ratioP2;P2;SDS_P1;SDS_P2;PMS_P1;PMS_P2;Temp;Humidity;BMP_temperature;BMP_pressure;BME280_temperature;BME280_humidity;BME280_pressure;Samples;Min_cycle;Max_cycle;Signal;HPM_P1;HPM_P2
2023/05/10 00:00:12;;;;;;;;;;;;;;;15.37;52.11;100106.81;4441476;32;34566;-82
2023/05/10 00:02:41;;;;;;;;;;;;;;;15.42;51.87;100103.88;4425441;32;32991;-82
2023/05/10 00:05:09;;;;;;;;;;;;;;;15.46;51.74;100105.44;4429111;32;33375;-82
2023/05/10 00:07:37;;;;;;;;;;;;;;;15.36;52.16;100099.78;4440518;32;33083;-81
2023/05/10 00:10:06;;;;;;;;;;;;;;;15.45;51.92;100103.72;4436920;32;35148;-82
2023/05/10 00:12:33;;;;;;;;;;;;;;;15.47;51.86;100099.16;4413646;32;33661;-81
2023/05/10 00:15:02;;;;;;;;;;;;;;;15.50;51.87;100106.97;4427425;32;34246;-81
2023/05/10 00:17:30;;;;;;;;;;;;;;;15.52;51.77;100102.41;4427187;32;32179;-82
2023/05/10 00:19:58;;;;;;;;;;;;;;;15.54;51.78;100107.66;4433436;32;32833;-81
2023/05/10 00:22:25;;;;;;;;;;;;;;;15.62;51.33;100106.25;4439365;32;33710;-82
2023/05/10 00:24:53;;;;;;;;;;;;;;;15.71;51.04;100101.31;4431985;32;34377;-81
2023/05/10 00:27:21;;;;;;;;;;;;;;;15.55;51.50;100093.38;4427122;32;33383;-82
2023/05/10 00:29:49;;;;;;;;;;;;;;;15.42;51.67;100101.22;4414270;32;34207;-81
2023/05/10 00:32:17;;;;;;;;;;;;;;;15.36;52.17;100098.94;4453783;32;33574;-81
2023/05/10 00:34:45;;;;;;;;;;;;;;;15.39;52.03;100097.91;4453515;32;32837;-82
2023/05/10 00:37:12;;;;;;;;;;;;;;;15.47;51.63;100092.97;4439668;32;33647;-82
2023/05/10 00:39:42;;;;;;;;;;;;;;;15.22;52.57;100096.22;4425885;32;32708;-81
2023/05/10 00:42:09;;;;;;;;;;;;;;;15.26;52.51;100090.63;4426834;32;34188;-81
2023/05/10 00:44:36;;;;;;;;;;;;;;;15.09;53.11;100094.25;4433521;32;33093;-82
2023/05/10 00:47:05;;;;;;;;;;;;;;;14.80;53.92;100103.03;4427443;32;34916;-81
2023/05/10 00:49:33;;;;;;;;;;;;;;;15.18;52.61;100090.22;4439735;32;34133;-80
2023/05/10 00:52:05;;;;;;;;;;;;;;;15.27;52.35;100099.47;4414617;32;33501;-81
2023/05/10 00:54:32;;;;;;;;;;;;;;;14.95;53.24;100090.69;4439121;32;33631;-81
2023/05/10 00:57:03;;;;;;;;;;;;;;;14.88;53.54;100098.16;4413994;32;32340;-81
2023/05/10 00:59:31;;;;;;;;;;;;;;;14.93;53.64;100093.44;4426695;32;34854;-81
2023/05/10 01:01:58;;;;;;;;;;;;;;;15.00;53.39;100097.47;4413574;32;33157;-81
2023/05/10 01:04:26;;;;;;;;;;;;;;;15.06;53.18;100091.78;4438922;32;34128;-81
2023/05/10 01:06:54;;;;;;;;;;;;;;;15.16;52.87;100091.28;4426690;32;31756;-81
2023/05/10 01:09:21;;;;;;;;;;;;;;;15.14;52.91;100093.12;4439586;32;33861;-81
2023/05/10 01:11:49;;;;;;;;;;;;;;;15.15;52.88;100092.22;4427491;32;34731;-81
2023/05/10 01:14:17;;;;;;;;;;;;;;;15.13;52.84;100091.44;4426572;32;33797;-81
2023/05/10 01:16:45;;;;;;;;;;;;;;;15.21;52.77;100089.19;4413873;32;32865;-81
2023/05/10 01:19:17;;;;;;;;;;;;;;;15.20;52.89;100088.34;4433267;32;32993;-81
2023/05/10 01:22:03;;;;;;;;;;;;;;;15.18;52.54;100084.91;4426545;32;33892;-82
2023/05/10 01:24:55;;;;;;;;;;;;;;;15.13;52.90;100086.12;4453082;32;34823;-82
2023/05/10 01:27:41;;;;;;;;;;;;;;;14.95;53.60;100093.34;4433452;32;32290;-82
2023/05/10 01:30:28;;;;;;;;;;;;;;;14.97;53.51;100089.66;4426551;32;34225;-82
2023/05/10 01:33:08;;;;;;;;;;;;;;;14.87;53.88;100090.28;4425909;32;33143;-81
2023/05/10 01:35:43;;;;;;;;;;;;;;;14.83;54.10;100089.59;4452766;32;34955;-81
2023/05/10 01:38:10;;;;;;;;;;;;;;;14.77;54.26;100084.63;4426665;32;33452;-81
2023/05/10 01:40:40;;;;;;;;;;;;;;;14.79;54.14;100088.03;4426694;32;33289;-81
2023/05/10 01:43:08;;;;;;;;;;;;;;;14.72;54.43;100092.00;4426880;32;34744;-80
2023/05/10 01:45:42;;;;;;;;;;;;;;;14.73;54.06;100089.25;4426732;32;34137;-80
2023/05/10 01:48:15;;;;;;;;;;;;;;;14.72;53.98;100086.69;4427229;32;31663;-80
2023/05/10 01:50:43;;;;;;;;;;;;;;;14.68;54.21;100080.69;4426724;32;33821;-80
2023/05/10 01:53:11;;;;;;;;;;;;;;;14.65;54.00;100080.00;4438088;32;33837;-80
2023/05/10 01:55:40;;;;;;;;;;;;;;;14.57;54.18;100089.25;4439217;32;34842;-80
2023/05/10 01:58:08;;;;;;;;;;;;;;;14.48;54.37;100087.13;4439499;32;33391;-80
2023/05/10 02:00:36;;;;;;;;;;;;;;;14.47;54.63;100080.03;4429793;32;33256;-80
2023/05/10 02:03:06;;;;;;;;;;;;;;;14.49;54.62;100080.84;4425899;32;33725;-80
2023/05/10 02:05:34;;;;;;;;;;;;;;;14.50;54.31;100076.41;4426653;32;34730;-80
2023/05/10 02:08:01;;;;;;;;;;;;;;;14.50;54.22;100068.41;4432030;32;33567;-80
2023/05/10 02:10:29;;;;;;;;;;;;;;;14.35;54.65;100062.12;4426424;32;34663;-81
2023/05/10 02:12:58;;;;;;;;;;;;;;;14.22;55.19;100072.56;4439114;32;35032;-81
2023/05/10 02:15:26;;;;;;;;;;;;;;;14.37;54.63;100060.22;4439513;32;33933;-80
2023/05/10 02:17:55;;;;;;;;;;;;;;;14.37;54.61;100068.19;4439218;32;33434;-80
2023/05/10 02:20:23;;;;;;;;;;;;;;;14.36;54.77;100066.50;4438857;32;33008;-81
2023/05/10 02:22:51;;;;;;;;;;;;;;;14.38;54.99;100061.94;4425392;32;34109;-80
2023/05/10 02:25:19;;;;;;;;;;;;;;;14.35;55.23;100056.81;4438727;32;33841;-81
2023/05/10 02:27:47;;;;;;;;;;;;;;;14.38;55.19;100056.63;4437435;32;32143;-81
2023/05/10 02:30:15;;;;;;;;;;;;;;;14.21;55.89;100054.91;4413255;32;33133;-81
2023/05/10 02:32:43;;;;;;;;;;;;;;;14.16;56.32;100061.41;4438884;32;33904;-83
2023/05/10 02:35:11;;;;;;;;;;;;;;;14.23;56.13;100053.00;4437839;32;32750;-82
2023/05/10 02:37:39;;;;;;;;;;;;;;;14.20;56.27;100057.66;4433975;32;32487;-82
2023/05/10 02:40:07;;;;;;;;;;;;;;;14.20;56.77;100058.50;4413683;32;34303;-83
2023/05/10 02:42:37;;;;;;;;;;;;;;;14.22;56.86;100058.41;4439096;32;35079;-83
2023/05/10 02:45:11;;;;;;;;;;;;;;;14.29;56.72;100058.00;4426379;32;34814;-83
2023/05/10 02:47:38;;;;;;;;;;;;;;;14.40;56.42;100064.53;4426298;32;33296;-82
2023/05/10 02:50:08;;;;;;;;;;;;;;;14.43;56.17;100059.91;4430164;32;33162;-82
2023/05/10 02:53:03;;;;;;;;;;;;;;;14.37;56.36;100054.06;4425741;32;33941;-83
2023/05/10 02:55:32;;;;;;;;;;;;;;;14.45;56.21;100052.69;4436491;32;33314;-82
2023/05/10 02:58:01;;;;;;;;;;;;;;;14.55;56.16;100066.38;4438079;32;32623;-82
2023/05/10 03:00:29;;;;;;;;;;;;;;;14.65;55.89;100058.72;4438608;32;32642;-82
2023/05/10 03:02:57;;;;;;;;;;;;;;;14.51;56.22;100063.00;4438415;32;34081;-82
2023/05/10 03:05:25;;;;;;;;;;;;;;;14.60;55.97;100062.50;4438712;32;34216;-83
2023/05/10 03:07:55;;;;;;;;;;;;;;;14.71;55.29;100045.09;4438350;32;32772;-81
2023/05/10 03:10:25;;;;;;;;;;;;;;;14.53;55.50;100054.97;4437642;32;34728;-81
2023/05/10 03:13:03;;;;;;;;;;;;;;;14.45;55.70;100059.81;4438811;32;34169;-81
2023/05/10 03:15:44;;;;;;;;;;;;;;;14.34;55.54;100052.44;4425877;32;33402;-81
2023/05/10 03:18:30;;;;;;;;;;;;;;;14.48;55.03;100052.56;4452450;32;33686;-80
2023/05/10 03:20:59;;;;;;;;;;;;;;;14.31;55.34;100055.25;4424731;32;33359;-80
2023/05/10 03:23:48;;;;;;;;;;;;;;;14.31;55.27;100060.56;4425588;32;33021;-80
2023/05/10 03:26:20;;;;;;;;;;;;;;;14.42;54.72;100052.00;4438090;32;33753;-81
2023/05/10 03:28:52;;;;;;;;;;;;;;;14.20;55.03;100052.34;4432391;32;32789;-80
2023/05/10 03:31:20;;;;;;;;;;;;;;;14.17;55.17;100060.47;4425371;32;33220;-80
2023/05/10 03:33:52;;;;;;;;;;;;;;;14.19;54.95;100069.19;4425493;32;33538;-80
2023/05/10 03:36:21;;;;;;;;;;;;;;;14.16;54.71;100056.97;4425765;32;33837;-80
2023/05/10 03:38:49;;;;;;;;;;;;;;;14.03;55.23;100067.37;4425254;32;32843;-80
2023/05/10 03:41:17;;;;;;;;;;;;;;;14.06;55.23;100056.59;4451481;32;33785;-80
2023/05/10 03:43:44;;;;;;;;;;;;;;;14.28;54.49;100055.41;4438084;32;35081;-80
2023/05/10 03:46:12;;;;;;;;;;;;;;;14.35;54.31;100054.16;4413896;32;33125;-80
2023/05/10 03:48:40;;;;;;;;;;;;;;;14.27;54.61;100053.72;4427521;32;32383;-80
2023/05/10 03:51:09;;;;;;;;;;;;;;;14.33;54.29;100053.38;4427679;32;33056;-80
2023/05/10 03:53:37;;;;;;;;;;;;;;;14.05;55.10;100060.22;4427791;32;33112;-80
2023/05/10 03:56:05;;;;;;;;;;;;;;;14.09;54.96;100061.72;4427805;32;32533;-80
2023/05/10 03:58:32;;;;;;;;;;;;;;;13.92;55.42;100061.81;4427584;32;31748;-80
2023/05/10 04:01:00;;;;;;;;;;;;;;;13.91;55.47;100057.44;4440224;32;34551;-80
2023/05/10 04:03:31;;;;;;;;;;;;;;;13.70;55.99;100058.56;4427415;32;33678;-80
2023/05/10 04:06:02;;;;;;;;;;;;;;;13.97;55.11;100053.59;4439504;32;32599;-81
2023/05/10 04:08:30;;;;;;;;;;;;;;;14.03;54.91;100055.91;4414944;32;32267;-80
2023/05/10 04:11:07;;;;;;;;;;;;;;;14.05;55.28;100048.69;4419035;32;34455;-80
2023/05/10 04:13:36;;;;;;;;;;;;;;;13.89;55.43;100059.28;4430410;32;32758;-82
2023/05/10 04:16:04;;;;;;;;;;;;;;;13.86;55.54;100058.59;4426039;32;34322;-81
2023/05/10 04:21:15;;;;;;;;;;;;;;;14.12;55.17;100058.06;4432896;32;33916;-81
2023/05/10 04:23:44;;;;;;;;;;;;;;;14.37;54.35;100054.91;4418402;32;33852;-81
2023/05/10 04:26:12;;;;;;;;;;;;;;;14.31;54.60;100060.56;4416553;32;32863;-81
2023/05/10 04:28:40;;;;;;;;;;;;;;;14.41;54.45;100059.12;4430725;32;32885;-81
2023/05/10 04:31:15;;;;;;;;;;;;;;;14.56;54.20;100065.41;4433094;32;32955;-82
2023/05/10 04:33:48;;;;;;;;;;;;;;;14.63;53.82;100065.94;4421580;32;34599;-82
2023/05/10 04:36:16;;;;;;;;;;;;;;;14.68;53.94;100071.84;4417804;32;34652;-80
2023/05/10 04:38:44;;;;;;;;;;;;;;;14.58;54.23;100066.19;4443563;32;33316;-81
2023/05/10 04:41:12;;;;;;;;;;;;;;;14.25;55.17;100074.19;4418655;32;34858;-81
2023/05/10 04:43:40;;;;;;;;;;;;;;;14.40;54.85;100069.84;4411821;32;33877;-81
2023/05/10 04:46:09;;;;;;;;;;;;;;;14.87;53.66;100069.00;4429777;32;33777;-81
2023/05/10 04:48:38;;;;;;;;;;;;;;;14.88;53.24;100065.41;4416146;32;33784;-81
2023/05/10 04:51:06;;;;;;;;;;;;;;;14.85;53.74;100069.94;4431355;32;32136;-81
2023/05/10 04:53:35;;;;;;;;;;;;;;;15.13;52.88;100064.84;4406603;32;33406;-80
2023/05/10 04:56:07;;;;;;;;;;;;;;;15.17;52.96;100063.72;4432694;32;34063;-81
2023/05/10 04:58:36;;;;;;;;;;;;;;;15.16;52.55;100059.34;4419723;32;35470;-81
2023/05/10 05:01:08;;;;;;;;;;;;;;;15.07;52.76;100058.06;4417421;32;32996;-82
2023/05/10 05:03:38;;;;;;;;;;;;;;;15.20;52.25;100066.22;4430282;32;33760;-82
2023/05/10 05:06:06;;;;;;;;;;;;;;;15.27;52.29;100064.88;4431091;32;34502;-82
2023/05/10 05:08:36;;;;;;;;;;;;;;;15.42;52.38;100060.47;4408347;32;32016;-81
2023/05/10 05:11:04;;;;;;;;;;;;;;;15.66;51.64;100063.47;4443546;32;32841;-81
2023/05/10 05:13:33;;;;;;;;;;;;;;;15.71;51.32;100066.72;4430867;32;33110;-81
2023/05/10 05:16:02;;;;;;;;;;;;;;;15.65;51.58;100067.09;4431025;32;33086;-81
2023/05/10 05:18:34;;;;;;;;;;;;;;;15.32;52.11;100065.47;4421993;32;32379;-82
2023/05/10 05:21:04;;;;;;;;;;;;;;;15.37;52.45;100063.38;4432423;32;33046;-81
2023/05/10 05:23:33;;;;;;;;;;;;;;;15.59;51.50;100061.16;4445939;32;33602;-81
2023/05/10 05:26:01;;;;;;;;;;;;;;;15.64;51.74;100063.59;4421228;32;33581;-81
2023/05/10 05:28:32;;;;;;;;;;;;;;;15.46;52.02;100062.84;4432534;32;32771;-81
2023/05/10 05:31:04;;;;;;;;;;;;;;;15.31;52.57;100069.94;4446872;32;34790;-82
2023/05/10 05:33:33;;;;;;;;;;;;;;;15.69;51.67;100068.63;4445817;32;32835;-80
2023/05/10 05:36:07;;;;;;;;;;;;;;;15.51;51.79;100065.22;4446238;32;34444;-79
2023/05/10 05:38:36;;;;;;;;;;;;;;;15.72;51.33;100071.13;4432122;32;31887;-79
2023/05/10 05:41:06;;;;;;;;;;;;;;;15.73;51.22;100070.16;4431516;32;34231;-80
2023/05/10 05:43:35;;;;;;;;;;;;;;;15.82;51.29;100074.94;4432936;32;32880;-79
2023/05/10 05:46:05;;;;;;;;;;;;;;;15.82;51.02;100082.91;4423322;32;34806;-79
2023/05/10 05:48:33;;;;;;;;;;;;;;;15.59;51.29;100085.13;4445865;32;33557;-79
2023/05/10 05:51:01;;;;;;;;;;;;;;;15.87;51.44;100072.84;4446508;32;33970;-80
2023/05/10 05:53:29;;;;;;;;;;;;;;;16.19;50.18;100081.50;4435838;32;32931;-79
2023/05/10 05:55:58;;;;;;;;;;;;;;;16.21;49.79;100086.75;4446744;32;34188;-79
2023/05/10 05:58:27;;;;;;;;;;;;;;;15.66;52.04;100085.63;4434191;32;31721;-79
2023/05/10 06:00:56;;;;;;;;;;;;;;;15.80;50.95;100082.13;4433191;32;33320;-79
2023/05/10 06:03:32;;;;;;;;;;;;;;;16.59;49.81;100084.31;4447850;32;35944;-80
2023/05/10 06:06:04;;;;;;;;;;;;;;;16.25;50.68;100088.25;4443003;32;34287;-80
2023/05/10 06:08:33;;;;;;;;;;;;;;;16.46;49.82;100086.91;4418923;32;32074;-80
2023/05/10 06:11:04;;;;;;;;;;;;;;;16.87;48.96;100080.75;4445990;32;34019;-80
2023/05/10 06:13:35;;;;;;;;;;;;;;;17.05;47.79;100079.56;4436195;32;34362;-80
2023/05/10 06:16:05;;;;;;;;;;;;;;;17.14;48.30;100081.63;4445881;32;35071;-80
2023/05/10 06:18:33;;;;;;;;;;;;;;;16.81;48.94;100089.16;4422530;32;33227;-81
2023/05/10 06:21:06;;;;;;;;;;;;;;;17.21;47.62;100078.53;4434287;32;33663;-79
2023/05/10 06:23:36;;;;;;;;;;;;;;;17.06;47.45;100091.94;4431991;32;33932;-79
2023/05/10 06:26:08;;;;;;;;;;;;;;;17.04;47.43;100096.53;4447854;32;34226;-79
2023/05/10 06:28:39;;;;;;;;;;;;;;;16.38;49.54;100105.19;4431982;32;32977;-79
2023/05/10 06:31:08;;;;;;;;;;;;;;;16.95;48.13;100097.13;4448251;32;33735;-80
2023/05/10 06:33:36;;;;;;;;;;;;;;;17.35;47.36;100095.31;4445286;32;33897;-79
2023/05/10 06:36:04;;;;;;;;;;;;;;;17.07;47.64;100111.47;4420178;32;34677;-79
2023/05/10 06:38:33;;;;;;;;;;;;;;;17.29;47.48;100090.41;4431792;32;33212;-80
2023/05/10 06:41:10;;;;;;;;;;;;;;;17.29;46.45;100097.56;4446353;32;33442;-79
2023/05/10 06:43:41;;;;;;;;;;;;;;;17.67;45.91;100085.13;4429104;32;34419;-79
2023/05/10 06:46:10;;;;;;;;;;;;;;;17.38;46.93;100091.59;4456242;32;35921;-79
2023/05/10 06:48:40;;;;;;;;;;;;;;;17.55;46.19;100093.97;4431569;32;32229;-80
2023/05/10 06:51:11;;;;;;;;;;;;;;;17.74;46.15;100095.41;4419469;32;33359;-79
2023/05/10 06:53:43;;;;;;;;;;;;;;;17.35;46.77;100102.47;4420708;32;32886;-79
2023/05/10 06:56:15;;;;;;;;;;;;;;;16.98;47.26;100094.22;4444107;32;33011;-79
2023/05/10 06:58:44;;;;;;;;;;;;;;;17.01;47.59;100091.37;4443401;32;32706;-78
2023/05/10 07:01:14;;;;;;;;;;;;;;;17.55;46.14;100087.78;4430929;32;34680;-80
2023/05/10 07:03:46;;;;;;;;;;;;;;;17.57;46.38;100085.88;4436904;32;33413;-78
2023/05/10 07:06:16;;;;;;;;;;;;;;;17.86;45.42;100086.56;4431698;32;33318;-78
2023/05/10 07:09:01;;;;;;;;;;;;;;;18.02;44.71;100087.22;4441389;32;34048;-78
2023/05/10 07:11:29;;;;;;;;;;;;;;;17.99;44.79;100087.41;4432881;32;35011;-79
2023/05/10 07:13:59;;;;;;;;;;;;;;;18.39;44.60;100089.97;4444027;32;34256;-78
2023/05/10 07:16:27;;;;;;;;;;;;;;;17.93;45.01;100093.19;4445183;32;33732;-79
2023/05/10 07:18:57;;;;;;;;;;;;;;;17.46;45.33;100086.59;4445096;32;32069;-78
2023/05/10 07:21:28;;;;;;;;;;;;;;;17.99;44.89;100087.41;4433227;32;34112;-78
2023/05/10 07:24:00;;;;;;;;;;;;;;;18.13;44.04;100084.63;4446539;32;33599;-78
2023/05/10 07:26:29;;;;;;;;;;;;;;;18.01;44.71;100081.97;4449092;32;34737;-78
2023/05/10 07:28:57;;;;;;;;;;;;;;;17.66;45.23;100093.25;4431815;32;32363;-78
2023/05/10 07:31:24;;;;;;;;;;;;;;;17.38;45.79;100091.59;4432828;32;35058;-78
2023/05/10 07:33:53;;;;;;;;;;;;;;;17.56;45.51;100086.81;4446169;32;35118;-78
2023/05/10 07:36:20;;;;;;;;;;;;;;;17.84;45.13;100075.13;4432865;32;33137;-78
2023/05/10 07:38:50;;;;;;;;;;;;;;;18.47;44.18;100074.22;4446244;32;32732;-78
2023/05/10 07:41:17;;;;;;;;;;;;;;;18.11;44.60;100077.69;4448162;32;33900;-78
2023/05/10 07:43:46;;;;;;;;;;;;;;;18.22;44.21;100079.59;4443344;32;35037;-78
2023/05/10 07:46:14;;;;;;;;;;;;;;;17.99;44.91;100071.37;4433518;32;34245;-78
2023/05/10 07:48:42;;;;;;;;;;;;;;;18.87;42.54;100063.31;4433289;32;32906;-79
2023/05/10 07:51:12;;;;;;;;;;;;;;;18.34;44.07;100070.72;4449913;32;33816;-79
2023/05/10 07:53:42;;;;;;;;;;;;;;;18.51;43.47;100078.34;4447865;32;34209;-79
2023/05/10 07:56:19;;;;;;;;;;;;;;;18.33;43.29;100074.37;4445128;32;33906;-79
2023/05/10 07:58:53;;;;;;;;;;;;;;;18.26;44.15;100075.75;4446471;32;33212;-78
2023/05/10 08:01:21;;;;;;;;;;;;;;;18.51;43.44;100089.06;4448290;32;33652;-78
2023/05/10 08:03:52;;;;;;;;;;;;;;;18.79;42.52;100073.72;4447265;32;34292;-78
2023/05/10 08:06:22;;;;;;;;;;;;;;;18.32;43.19;100080.66;4419831;32;32814;-78
2023/05/10 08:08:50;;;;;;;;;;;;;;;18.71;43.10;100073.44;4434616;32;33165;-78
2023/05/10 08:11:18;;;;;;;;;;;;;;;18.58;43.96;100074.28;4434759;32;35064;-78
2023/05/10 08:13:46;;;;;;;;;;;;;;;18.43;43.83;100072.75;4434553;32;33645;-78
2023/05/10 08:16:18;;;;;;;;;;;;;;;18.24;43.93;100086.56;4432799;32;34813;-78
2023/05/10 08:18:46;;;;;;;;;;;;;;;18.21;44.00;100089.44;4434165;32;33986;-78
2023/05/10 08:21:15;;;;;;;;;;;;;;;18.37;43.28;100075.81;4433545;32;33853;-78
2023/05/10 08:23:44;;;;;;;;;;;;;;;18.61;42.79;100079.44;4437363;32;34908;-79
2023/05/10 08:26:12;;;;;;;;;;;;;;;18.76;42.59;100068.63;4432230;32;33480;-79
2023/05/10 08:28:40;;;;;;;;;;;;;;;18.62;43.03;100070.44;4433821;32;31954;-78
2023/05/10 08:31:08;;;;;;;;;;;;;;;19.03;43.35;100063.03;4448737;32;32595;-78
2023/05/10 08:33:37;;;;;;;;;;;;;;;19.02;42.87;100070.19;4444679;32;33557;-79
2023/05/10 08:36:08;;;;;;;;;;;;;;;19.25;42.66;100059.59;4460798;32;34071;-78
2023/05/10 08:38:37;;;;;;;;;;;;;;;18.59;42.35;100065.28;4447402;32;32927;-78
2023/05/10 08:41:05;;;;;;;;;;;;;;;19.23;41.84;100069.53;4433120;32;34854;-79
2023/05/10 08:43:35;;;;;;;;;;;;;;;18.63;42.15;100069.47;4433173;32;34389;-78
2023/05/10 08:46:05;;;;;;;;;;;;;;;19.01;42.33;100059.62;4444499;32;34599;-78
2023/05/10 08:48:35;;;;;;;;;;;;;;;19.44;41.48;100062.59;4435182;32;34295;-78
2023/05/10 08:51:03;;;;;;;;;;;;;;;19.36;41.09;100065.84;4447357;32;34391;-78
2023/05/10 08:53:33;;;;;;;;;;;;;;;19.32;42.40;100063.50;4433501;32;33890;-79
2023/05/10 08:56:03;;;;;;;;;;;;;;;19.93;41.20;100064.16;4447663;32;34921;-79
2023/05/10 08:58:34;;;;;;;;;;;;;;;19.85;39.87;100048.72;4433832;32;33295;-79
2023/05/10 09:01:05;;;;;;;;;;;;;;;19.99;38.84;100069.06;4430696;32;33316;-78
2023/05/10 09:03:36;;;;;;;;;;;;;;;19.64;40.20;100067.28;4434479;32;33605;-78
2023/05/10 09:06:08;;;;;;;;;;;;;;;20.15;39.03;100064.19;4422750;32;33168;-78
2023/05/10 09:08:46;;;;;;;;;;;;;;;20.50;38.53;100065.03;4441208;32;34069;-77
2023/05/10 09:11:15;;;;;;;;;;;;;;;20.35;37.67;100059.91;4445761;32;33714;-78
2023/05/10 09:13:43;;;;;;;;;;;;;;;20.42;37.93;100060.28;4430248;32;34251;-78
2023/05/10 09:16:12;;;;;;;;;;;;;;;19.90;39.57;100056.38;4444272;32;33776;-78
2023/05/10 09:19:01;;;;;;;;;;;;;;;19.82;38.07;100051.63;4432965;32;33816;-77
2023/05/10 09:21:32;;;;;;;;;;;;;;;20.55;38.00;100039.56;4435321;32;34731;-78
2023/05/10 09:24:05;;;;;;;;;;;;;;;20.76;37.93;100057.56;4431273;32;33993;-78
2023/05/10 09:26:35;;;;;;;;;;;;;;;20.89;36.64;100058.28;4431131;32;34246;-77
2023/05/10 09:29:08;;;;;;;;;;;;;;;20.58;37.17;100050.03;4445862;32;33043;-78
2023/05/10 09:31:54;;;;;;;;;;;;;;;20.43;38.76;100053.94;4432969;32;34169;-78
2023/05/10 09:34:30;;;;;;;;;;;;;;;20.48;39.77;100049.09;4446348;32;35018;-78
2023/05/10 09:37:04;;;;;;;;;;;;;;;20.61;38.12;100041.75;4452418;32;35097;-79
2023/05/10 09:39:33;;;;;;;;;;;;;;;20.12;40.21;100050.16;4421614;32;33069;-78
2023/05/10 09:42:03;;;;;;;;;;;;;;;20.33;38.75;100045.78;4429736;32;34645;-80
2023/05/10 09:44:35;;;;;;;;;;;;;;;20.70;37.68;100043.69;4445118;32;34083;-78
2023/05/10 09:47:04;;;;;;;;;;;;;;;20.85;36.66;100038.03;4445028;32;34089;-79
2023/05/10 09:49:34;;;;;;;;;;;;;;;20.47;37.32;100044.72;4453219;32;32642;-78
2023/05/10 09:52:05;;;;;;;;;;;;;;;20.52;37.59;100049.69;4431359;32;34262;-78
2023/05/10 09:54:42;;;;;;;;;;;;;;;20.26;38.47;100043.72;4442469;32;33551;-78
2023/05/10 09:57:21;;;;;;;;;;;;;;;20.54;37.37;100040.53;4452910;32;34113;-78
2023/05/10 09:59:50;;;;;;;;;;;;;;;20.67;36.97;100040.41;4443873;32;33774;-78
2023/05/10 10:02:21;;;;;;;;;;;;;;;20.45;37.21;100036.72;4432306;32;34237;-78
2023/05/10 10:04:53;;;;;;;;;;;;;;;20.36;38.10;100042.00;4444013;32;34065;-77
2023/05/10 10:07:25;;;;;;;;;;;;;;;20.61;37.38;100033.72;4431309;32;32980;-78
2023/05/10 10:09:54;;;;;;;;;;;;;;;20.60;36.75;100021.25;4448763;32;34127;-77
2023/05/10 10:12:22;;;;;;;;;;;;;;;20.76;36.04;100018.19;4446211;32;34597;-78
2023/05/10 10:14:54;;;;;;;;;;;;;;;20.67;37.07;100019.78;4433370;32;34268;-78
2023/05/10 10:17:24;;;;;;;;;;;;;;;20.74;37.70;100024.63;4443379;32;34507;-78
2023/05/10 10:19:55;;;;;;;;;;;;;;;20.92;37.58;100032.00;4432337;32;33357;-78
2023/05/10 10:22:24;;;;;;;;;;;;;;;20.87;37.03;100017.28;4444397;32;34000;-78
2023/05/10 10:24:51;;;;;;;;;;;;;;;21.09;37.37;100013.66;4434514;32;33984;-78
2023/05/10 10:27:36;;;;;;;;;;;;;;;20.78;36.35;100018.88;4429629;32;33142;-78
2023/05/10 10:30:12;;;;;;;;;;;;;;;20.26;37.89;100011.53;4446297;32;32699;-78
2023/05/10 10:33:02;;;;;;;;;;;;;;;20.64;37.47;100011.13;4462354;32;33565;-78
2023/05/10 10:35:50;;;;;;;;;;;;;;;20.75;36.87;100003.06;4458422;32;33822;-77
2023/05/10 10:38:22;;;;;;;;;;;;;;;20.55;38.08;100015.41;4436974;32;34345;-78
2023/05/10 10:41:14;;;;;;;;;;;;;;;20.18;37.37;100004.97;4431043;32;31858;-78
2023/05/10 10:43:45;;;;;;;;;;;;;;;20.35;38.33;100013.47;4433654;32;33585;-78
2023/05/10 10:46:18;;;;;;;;;;;;;;;20.13;37.87;100009.84;4431845;32;33636;-77
2023/05/10 10:48:47;;;;;;;;;;;;;;;20.62;37.38;99999.69;4446689;32;34352;-78
2023/05/10 10:51:16;;;;;;;;;;;;;;;21.07;36.24;99992.28;4445620;32;33255;-78
2023/05/10 10:53:44;;;;;;;;;;;;;;;21.22;36.84;99996.38;4446702;32;35058;-78
2023/05/10 10:56:15;;;;;;;;;;;;;;;20.79;36.58;99998.28;4443458;32;33059;-78
2023/05/10 10:58:55;;;;;;;;;;;;;;;21.07;36.96;99991.44;4450006;32;33865;-77
2023/05/10 11:04:08;;;;;;;;;;;;;;;20.87;35.91;99977.03;4447210;32;33832;-78
2023/05/10 11:06:37;;;;;;;;;;;;;;;21.18;35.70;99964.56;4445347;32;33486;-77
2023/05/10 11:09:05;;;;;;;;;;;;;;;20.96;35.97;99969.03;4445295;32;34227;-78
2023/05/10 11:11:36;;;;;;;;;;;;;;;21.29;34.79;99969.00;4447465;32;33050;-78
2023/05/10 11:14:06;;;;;;;;;;;;;;;21.14;35.86;99968.47;4434220;32;32993;-78
2023/05/10 11:16:42;;;;;;;;;;;;;;;21.16;35.89;99964.66;4446036;32;33325;-78
2023/05/10 11:19:11;;;;;;;;;;;;;;;21.19;35.70;99964.41;4447747;32;34061;-78
2023/05/10 11:21:58;;;;;;;;;;;;;;;21.25;34.65;99972.94;4446632;32;34222;-78
2023/05/10 11:24:28;;;;;;;;;;;;;;;21.18;35.22;99962.72;4461844;32;33884;-77
2023/05/10 11:26:57;;;;;;;;;;;;;;;20.70;35.27;99973.94;4424995;32;33731;-77
2023/05/10 11:29:26;;;;;;;;;;;;;;;20.70;34.93;99962.34;4430327;32;34214;-78
2023/05/10 11:31:56;;;;;;;;;;;;;;;20.40;36.08;99957.63;4448176;32;33262;-77
2023/05/10 11:34:26;;;;;;;;;;;;;;;20.44;36.85;99956.41;4419405;32;33751;-79
2023/05/10 11:36:58;;;;;;;;;;;;;;;20.45;37.37;99963.47;4446846;32;34405;-78
2023/05/10 11:39:28;;;;;;;;;;;;;;;20.83;35.15;99952.25;4460211;32;33671;-78
2023/05/10 11:41:57;;;;;;;;;;;;;;;21.01;35.70;99952.56;4435361;32;32918;-78
2023/05/10 11:44:30;;;;;;;;;;;;;;;21.09;35.14;99950.06;4445503;32;34151;-78
2023/05/10 11:47:00;;;;;;;;;;;;;;;20.64;34.96;99950.25;4445286;32;34924;-78
2023/05/10 11:49:29;;;;;;;;;;;;;;;20.83;34.99;99943.38;4447397;32;34062;-78
2023/05/10 11:54:53;;;;;;;;;;;;;;;20.28;35.94;99950.59;4447158;32;34203;-76
2023/05/10 11:57:32;;;;;;;;;;;;;;;20.45;35.88;99952.75;4432186;32;34639;-76
2023/05/10 12:00:03;;;;;;;;;;;;;;;20.57;35.52;99943.72;4457910;32;34592;-76
2023/05/10 12:02:34;;;;;;;;;;;;;;;21.00;34.91;99936.59;4431227;32;33314;-76
2023/05/10 12:05:08;;;;;;;;;;;;;;;20.66;35.32;99945.63;4444613;32;34807;-76
2023/05/10 12:07:36;;;;;;;;;;;;;;;20.49;36.78;99950.69;4448541;32;33998;-76
2023/05/10 12:10:08;;;;;;;;;;;;;;;20.28;36.57;99950.59;4429695;32;35095;-77
2023/05/10 12:12:44;;;;;;;;;;;;;;;20.79;36.09;99939.22;4432857;32;35922;-76
2023/05/10 12:15:18;;;;;;;;;;;;;;;21.16;34.32;99942.34;4443114;32;33508;-77
2023/05/10 12:17:58;;;;;;;;;;;;;;;20.70;35.67;99951.62;4433263;32;32848;-77
2023/05/10 12:20:27;;;;;;;;;;;;;;;20.87;35.45;99953.72;4444806;32;34429;-76
2023/05/10 12:22:57;;;;;;;;;;;;;;;20.99;34.54;99945.63;4433760;32;33009;-76
2023/05/10 12:25:32;;;;;;;;;;;;;;;21.27;34.37;99941.41;4428711;32;33841;-76
2023/05/10 12:28:03;;;;;;;;;;;;;;;21.26;33.82;99937.03;4431807;32;34315;-76
2023/05/10 12:30:32;;;;;;;;;;;;;;;21.09;33.93;99931.28;4428360;32;32777;-75
2023/05/10 12:35:49;;;;;;;;;;;;;;;21.42;34.35;99938.31;4444567;32;32634;-77
2023/05/10 12:38:49;;;;;;;;;;;;;;;21.84;33.13;99918.53;4427543;32;34751;-76
2023/05/10 12:41:18;;;;;;;;;;;;;;;21.69;33.47;99913.53;4436631;32;32906;-77
2023/05/10 12:43:48;;;;;;;;;;;;;;;21.74;33.79;99921.19;4429011;32;33036;-76
2023/05/10 12:46:21;;;;;;;;;;;;;;;21.20;35.17;99924.97;4419331;32;34215;-77
2023/05/10 12:48:54;;;;;;;;;;;;;;;20.96;35.64;99925.25;4440243;32;35458;-78
2023/05/10 12:51:34;;;;;;;;;;;;;;;21.15;34.58;99914.63;4444050;32;34222;-76
2023/05/10 12:54:06;;;;;;;;;;;;;;;20.89;34.67;99910.66;4455856;32;33115;-77
2023/05/10 12:56:37;;;;;;;;;;;;;;;20.76;35.03;99907.31;4454884;32;34000;-76
2023/05/10 12:59:06;;;;;;;;;;;;;;;20.95;34.77;99910.13;4432082;32;35164;-77
2023/05/10 13:01:37;;;;;;;;;;;;;;;21.13;34.44;99905.88;4451719;32;34054;-76
2023/05/10 13:04:05;;;;;;;;;;;;;;;20.89;34.81;99899.94;4445871;32;33252;-76
2023/05/10 13:06:34;;;;;;;;;;;;;;;21.34;34.25;99903.19;4432264;32;35005;-75